sensor_id;sensor_type;location;lat;lon;timestamp;P1;durP1;ratioP1;P2;durP2;ratioP2
24102;SDS011;12278;53.058;9.028;2023-06-22T00:03:31;8.73;;;7.78;;
24102;SDS011;12278;53.058;9.028;2023-06-22T00:07:32;8.98;;;8.05;;
24102;SDS011;12278;53.058;9.028;2023-06-22T00:11:36;9.02;;;8.13;;
24102;SDS011;12278;53.058;9.028;2023-06-22T00:15:37;8.80;;;7.95;;
24102;SDS011;12278;53.058;9.028;2023-06-22T00:19:39;9.48;;;8.57;;
24102;SDS011;12278;53.058;9.028;2023-06-22T00:23:40;11.10;;;8.98;;
24102;SDS011;12278;53.058;9.028;2023-06-22T00:27:41;10.80;;;8.90;;
24102;SDS011;12278;53.058;9.028;2023-06-22T00:31:41;8.63;;;7.78;;
24102;SDS011;12278;53.058;9.028;2023-06-22T00:35:42;10.20;;;8.60;;
24102;SDS011;12278;53.058;9.028;2023-06-22T00:39:43;9.30;;;8.25;;
24102;SDS011;12278;53.058;9.028;2023-06-22T00:43:44;10.68;;;8.13;;
24102;SDS011;12278;53.058;9.028;2023-06-22T00:47:45;10.88;;;9.35;;
24102;SDS011;12278;53.058;9.028;2023-06-22T00:51:45;12.00;;;9.23;;
24102;SDS011;12278;53.058;9.028;2023-06-22T00:55:48;9.38;;;8.48;;
24102;SDS011;12278;53.058;9.028;2023-06-22T00:59:51;11.40;;;10.20;;
24102;SDS011;12278;53.058;9.028;2023-06-22T01:03:52;10.95;;;9.85;;
24102;SDS011;12278;53.058;9.028;2023-06-22T01:12:04;11.85;;;10.75;;
24102;SDS011;12278;53.058;9.028;2023-06-22T01:20:37;12.45;;;11.15;;
24102;SDS011;12278;53.058;9.028;2023-06-22T01:24:45;14.05;;;12.65;;
24102;SDS011;12278;53.058;9.028;2023-06-22T01:28:53;15.90;;;12.18;;
24102;SDS011;12278;53.058;9.028;2023-06-22T01:32:56;13.00;;;11.73;;
24102;SDS011;12278;53.058;9.028;2023-06-22T01:36:58;15.73;;;12.77;;
24102;SDS011;12278;53.058;9.028;2023-06-22T01:41:01;14.48;;;11.98;;
24102;SDS011;12278;53.058;9.028;2023-06-22T01:45:02;12.80;;;11.52;;
24102;SDS011;12278;53.058;9.028;2023-06-22T01:49:04;13.55;;;12.27;;
24102;SDS011;12278;53.058;9.028;2023-06-22T01:53:05;12.85;;;11.35;;
24102;SDS011;12278;53.058;9.028;2023-06-22T01:57:07;13.20;;;11.90;;
24102;SDS011;12278;53.058;9.028;2023-06-22T02:01:10;13.65;;;12.25;;
24102;SDS011;12278;53.058;9.028;2023-06-22T02:05:11;12.10;;;10.90;;
24102;SDS011;12278;53.058;9.028;2023-06-22T02:09:16;13.32;;;12.05;;
24102;SDS011;12278;53.058;9.028;2023-06-22T02:13:20;12.77;;;11.48;;
24102;SDS011;12278;53.058;9.028;2023-06-22T02:17:21;13.63;;;11.13;;
24102;SDS011;12278;53.058;9.028;2023-06-22T02:21:23;13.48;;;12.10;;
24102;SDS011;12278;53.058;9.028;2023-06-22T02:25:24;12.95;;;11.68;;
24102;SDS011;12278;53.058;9.028;2023-06-22T02:29:24;13.48;;;11.98;;
24102;SDS011;12278;53.058;9.028;2023-06-22T02:33:26;13.65;;;11.70;;
24102;SDS011;12278;53.058;9.028;2023-06-22T02:37:27;12.75;;;11.52;;
24102;SDS011;12278;53.058;9.028;2023-06-22T02:41:29;12.13;;;10.90;;
24102;SDS011;12278;53.058;9.028;2023-06-22T02:45:30;12.40;;;11.20;;
24102;SDS011;12278;53.058;9.028;2023-06-22T02:49:30;12.73;;;11.48;;
24102;SDS011;12278;53.058;9.028;2023-06-22T02:53:31;12.55;;;11.32;;
24102;SDS011;12278;53.058;9.028;2023-06-22T02:57:32;13.05;;;11.75;;
24102;SDS011;12278;53.058;9.028;2023-06-22T03:01:33;13.00;;;11.70;;
24102;SDS011;12278;53.058;9.028;2023-06-22T03:05:43;14.35;;;12.85;;
24102;SDS011;12278;53.058;9.028;2023-06-22T03:09:44;13.45;;;11.90;;
24102;SDS011;12278;53.058;9.028;2023-06-22T03:13:45;13.05;;;11.85;;
24102;SDS011;12278;53.058;9.028;2023-06-22T03:17:46;13.43;;;12.02;;
24102;SDS011;12278;53.058;9.028;2023-06-22T03:21:47;13.32;;;11.82;;
24102;SDS011;12278;53.058;9.028;2023-06-22T03:25:47;12.80;;;11.45;;
24102;SDS011;12278;53.058;9.028;2023-06-22T03:29:48;14.30;;;12.00;;
24102;SDS011;12278;53.058;9.028;2023-06-22T03:33:49;13.95;;;12.50;;
24102;SDS011;12278;53.058;9.028;2023-06-22T03:37:50;13.25;;;11.85;;
24102;SDS011;12278;53.058;9.028;2023-06-22T03:41:50;12.60;;;11.32;;
24102;SDS011;12278;53.058;9.028;2023-06-22T03:45:51;14.32;;;12.88;;
24102;SDS011;12278;53.058;9.028;2023-06-22T03:49:52;12.82;;;11.50;;
24102;SDS011;12278;53.058;9.028;2023-06-22T03:53:55;13.95;;;12.48;;
24102;SDS011;12278;53.058;9.028;2023-06-22T03:57:55;13.15;;;11.93;;
24102;SDS011;12278;53.058;9.028;2023-06-22T04:01:57;16.27;;;13.30;;
24102;SDS011;12278;53.058;9.028;2023-06-22T04:05:57;14.43;;;13.02;;
24102;SDS011;12278;53.058;9.028;2023-06-22T04:09:58;13.98;;;12.63;;
24102;SDS011;12278;53.058;9.028;2023-06-22T04:13:59;13.73;;;12.40;;
24102;SDS011;12278;53.058;9.028;2023-06-22T04:18:00;14.38;;;12.88;;
24102;SDS011;12278;53.058;9.028;2023-06-22T04:22:00;15.57;;;13.13;;
24102;SDS011;12278;53.058;9.028;2023-06-22T04:26:02;15.93;;;13.38;;
24102;SDS011;12278;53.058;9.028;2023-06-22T04:30:03;16.65;;;14.60;;
24102;SDS011;12278;53.058;9.028;2023-06-22T04:34:05;15.98;;;14.32;;
24102;SDS011;12278;53.058;9.028;2023-06-22T04:38:12;16.38;;;14.68;;
24102;SDS011;12278;53.058;9.028;2023-06-22T04:42:15;16.75;;;15.05;;
24102;SDS011;12278;53.058;9.028;2023-06-22T04:46:16;16.42;;;14.73;;
24102;SDS011;12278;53.058;9.028;2023-06-22T04:50:16;21.38;;;15.77;;
24102;SDS011;12278;53.058;9.028;2023-06-22T04:54:17;19.20;;;15.80;;
24102;SDS011;12278;53.058;9.028;2023-06-22T04:58:18;18.70;;;16.50;;
24102;SDS011;12278;53.058;9.028;2023-06-22T05:02:19;17.48;;;15.35;;
24102;SDS011;12278;53.058;9.028;2023-06-22T05:06:21;19.38;;;16.40;;
24102;SDS011;12278;53.058;9.028;2023-06-22T05:10:24;18.38;;;15.95;;
24102;SDS011;12278;53.058;9.028;2023-06-22T05:14:25;19.73;;;17.17;;
24102;SDS011;12278;53.058;9.028;2023-06-22T05:18:27;21.13;;;17.08;;
24102;SDS011;12278;53.058;9.028;2023-06-22T05:22:29;18.52;;;16.02;;
24102;SDS011;12278;53.058;9.028;2023-06-22T05:26:30;20.92;;;17.23;;
24102;SDS011;12278;53.058;9.028;2023-06-22T05:30:32;19.02;;;16.70;;
24102;SDS011;12278;53.058;9.028;2023-06-22T05:34:32;17.50;;;15.68;;
24102;SDS011;12278;53.058;9.028;2023-06-22T05:38:33;18.48;;;14.52;;
24102;SDS011;12278;53.058;9.028;2023-06-22T05:42:34;17.92;;;15.55;;
24102;SDS011;12278;53.058;9.028;2023-06-22T05:46:35;17.15;;;14.00;;
24102;SDS011;12278;53.058;9.028;2023-06-22T05:50:36;18.17;;;13.88;;
24102;SDS011;12278;53.058;9.028;2023-06-22T05:54:40;16.65;;;14.88;;
24102;SDS011;12278;53.058;9.028;2023-06-22T05:58:41;15.27;;;13.57;;
24102;SDS011;12278;53.058;9.028;2023-06-22T06:02:42;15.43;;;12.48;;
24102;SDS011;12278;53.058;9.028;2023-06-22T06:06:43;17.38;;;12.80;;
24102;SDS011;12278;53.058;9.028;2023-06-22T06:10:44;13.68;;;12.25;;
24102;SDS011;12278;53.058;9.028;2023-06-22T06:14:44;14.10;;;11.80;;
24102;SDS011;12278;53.058;9.028;2023-06-22T06:18:45;16.65;;;11.63;;
24102;SDS011;12278;53.058;9.028;2023-06-22T06:22:46;12.98;;;10.35;;
24102;SDS011;12278;53.058;9.028;2023-06-22T06:26:49;9.25;;;8.18;;
24102;SDS011;12278;53.058;9.028;2023-06-22T06:30:50;11.15;;;9.18;;
24102;SDS011;12278;53.058;9.028;2023-06-22T06:34:51;12.43;;;9.07;;
24102;SDS011;12278;53.058;9.028;2023-06-22T06:38:52;11.07;;;8.82;;
24102;SDS011;12278;53.058;9.028;2023-06-22T06:42:53;8.77;;;7.88;;
24102;SDS011;12278;53.058;9.028;2023-06-22T06:46:53;9.32;;;8.43;;
24102;SDS011;12278;53.058;9.028;2023-06-22T06:50:54;9.48;;;8.25;;
24102;SDS011;12278;53.058;9.028;2023-06-22T06:54:55;9.35;;;7.78;;
24102;SDS011;12278;53.058;9.028;2023-06-22T06:58:55;10.90;;;7.80;;
24102;SDS011;12278;53.058;9.028;2023-06-22T07:02:56;10.32;;;7.45;;
24102;SDS011;12278;53.058;9.028;2023-06-22T07:06:58;7.88;;;7.07;;
24102;SDS011;12278;53.058;9.028;2023-06-22T07:11:01;9.10;;;7.85;;
24102;SDS011;12278;53.058;9.028;2023-06-22T07:15:02;7.97;;;7.15;;
24102;SDS011;12278;53.058;9.028;2023-06-22T07:19:05;7.60;;;6.80;;
24102;SDS011;12278;53.058;9.028;2023-06-22T07:23:05;8.00;;;6.53;;
24102;SDS011;12278;53.058;9.028;2023-06-22T07:27:06;6.18;;;5.57;;
24102;SDS011;12278;53.058;9.028;2023-06-22T07:31:07;7.47;;;6.43;;
24102;SDS011;12278;53.058;9.028;2023-06-22T07:35:07;9.05;;;5.78;;
24102;SDS011;12278;53.058;9.028;2023-06-22T07:39:08;7.32;;;5.70;;
24102;SDS011;12278;53.058;9.028;2023-06-22T07:43:09;5.88;;;5.38;;
24102;SDS011;12278;53.058;9.028;2023-06-22T07:47:10;5.47;;;4.95;;
24102;SDS011;12278;53.058;9.028;2023-06-22T07:51:10;7.15;;;5.82;;
24102;SDS011;12278;53.058;9.028;2023-06-22T07:55:14;7.10;;;5.50;;
24102;SDS011;12278;53.058;9.028;2023-06-22T07:59:15;5.47;;;4.97;;
24102;SDS011;12278;53.058;9.028;2023-06-22T08:03:16;5.93;;;4.55;;
24102;SDS011;12278;53.058;9.028;2023-06-22T08:07:16;6.03;;;5.43;;
24102;SDS011;12278;53.058;9.028;2023-06-22T08:11:19;6.32;;;4.75;;
24102;SDS011;12278;53.058;9.028;2023-06-22T08:15:22;6.03;;;4.93;;
24102;SDS011;12278;53.058;9.028;2023-06-22T08:19:23;5.97;;;4.50;;
24102;SDS011;12278;53.058;9.028;2023-06-22T08:23:23;6.22;;;5.63;;
24102;SDS011;12278;53.058;9.028;2023-06-22T08:27:24;6.25;;;5.47;;
24102;SDS011;12278;53.058;9.028;2023-06-22T08:31:28;9.07;;;6.60;;
24102;SDS011;12278;53.058;9.028;2023-06-22T08:35:29;7.63;;;5.63;;
24102;SDS011;12278;53.058;9.028;2023-06-22T08:39:30;7.05;;;5.68;;
24102;SDS011;12278;53.058;9.028;2023-06-22T08:43:31;6.72;;;5.20;;
24102;SDS011;12278;53.058;9.028;2023-06-22T08:47:31;5.75;;;4.43;;
24102;SDS011;12278;53.058;9.028;2023-06-22T08:51:32;5.10;;;3.92;;
24102;SDS011;12278;53.058;9.028;2023-06-22T08:55:38;4.60;;;3.90;;
24102;SDS011;12278;53.058;9.028;2023-06-22T08:59:39;4.25;;;2.88;;
24102;SDS011;12278;53.058;9.028;2023-06-22T09:03:44;4.47;;;3.90;;
24102;SDS011;12278;53.058;9.028;2023-06-22T09:07:53;4.82;;;3.85;;
24102;SDS011;12278;53.058;9.028;2023-06-22T09:11:56;3.70;;;3.30;;
24102;SDS011;12278;53.058;9.028;2023-06-22T09:15:56;3.67;;;3.38;;
24102;SDS011;12278;53.058;9.028;2023-06-22T09:19:57;4.38;;;3.78;;
24102;SDS011;12278;53.058;9.028;2023-06-22T09:23:58;3.70;;;3.08;;
24102;SDS011;12278;53.058;9.028;2023-06-22T09:27:59;5.13;;;2.92;;
24102;SDS011;12278;53.058;9.028;2023-06-22T09:36:07;3.45;;;3.15;;
24102;SDS011;12278;53.058;9.028;2023-06-22T09:40:08;4.60;;;3.40;;
24102;SDS011;12278;53.058;9.028;2023-06-22T09:44:10;3.13;;;2.88;;
24102;SDS011;12278;53.058;9.028;2023-06-22T09:48:11;3.78;;;3.38;;
24102;SDS011;12278;53.058;9.028;2023-06-22T09:52:11;4.90;;;3.60;;
24102;SDS011;12278;53.058;9.028;2023-06-22T09:56:12;4.13;;;3.72;;
24102;SDS011;12278;53.058;9.028;2023-06-22T10:00:16;3.63;;;3.22;;
24102;SDS011;12278;53.058;9.028;2023-06-22T10:04:17;6.28;;;3.90;;
24102;SDS011;12278;53.058;9.028;2023-06-22T10:08:18;3.45;;;3.15;;
24102;SDS011;12278;53.058;9.028;2023-06-22T10:12:18;4.13;;;3.28;;
24102;SDS011;12278;53.058;9.028;2023-06-22T10:16:19;6.35;;;3.42;;
24102;SDS011;12278;53.058;9.028;2023-06-22T10:20:22;4.25;;;3.60;;
24102;SDS011;12278;53.058;9.028;2023-06-22T10:24:23;7.60;;;3.85;;
24102;SDS011;12278;53.058;9.028;2023-06-22T10:28:24;4.15;;;3.63;;
24102;SDS011;12278;53.058;9.028;2023-06-22T10:32:24;4.45;;;3.88;;
24102;SDS011;12278;53.058;9.028;2023-06-22T10:36:25;3.60;;;3.30;;
24102;SDS011;12278;53.058;9.028;2023-06-22T10:40:27;4.20;;;3.60;;
24102;SDS011;12278;53.058;9.028;2023-06-22T10:44:27;5.45;;;3.25;;
24102;SDS011;12278;53.058;9.028;2023-06-22T10:48:28;4.40;;;3.63;;
24102;SDS011;12278;53.058;9.028;2023-06-22T10:52:29;4.35;;;3.95;;
24102;SDS011;12278;53.058;9.028;2023-06-22T10:56:34;3.65;;;3.35;;
24102;SDS011;12278;53.058;9.028;2023-06-22T11:00:34;4.10;;;3.70;;
24102;SDS011;12278;53.058;9.028;2023-06-22T11:04:35;3.60;;;3.30;;
24102;SDS011;12278;53.058;9.028;2023-06-22T11:08:36;4.20;;;3.80;;
24102;SDS011;12278;53.058;9.028;2023-06-22T11:12:41;4.13;;;3.67;;
24102;SDS011;12278;53.058;9.028;2023-06-22T11:16:42;4.82;;;4.07;;
24102;SDS011;12278;53.058;9.028;2023-06-22T11:20:43;4.65;;;3.72;;
24102;SDS011;12278;53.058;9.028;2023-06-22T11:24:43;4.63;;;4.13;;
24102;SDS011;12278;53.058;9.028;2023-06-22T11:28:44;4.22;;;3.67;;
24102;SDS011;12278;53.058;9.028;2023-06-22T11:32:46;5.13;;;4.55;;
24102;SDS011;12278;53.058;9.028;2023-06-22T11:36:46;4.78;;;4.38;;
24102;SDS011;12278;53.058;9.028;2023-06-22T11:40:48;4.78;;;4.07;;
24102;SDS011;12278;53.058;9.028;2023-06-22T11:44:49;4.97;;;4.07;;
24102;SDS011;12278;53.058;9.028;2023-06-22T11:48:49;3.67;;;3.35;;
24102;SDS011;12278;53.058;9.028;2023-06-22T11:52:50;6.18;;;3.67;;
24102;SDS011;12278;53.058;9.028;2023-06-22T11:56:52;4.00;;;3.70;;
24102;SDS011;12278;53.058;9.028;2023-06-22T12:00:54;6.85;;;4.30;;
24102;SDS011;12278;53.058;9.028;2023-06-22T12:04:55;5.35;;;4.30;;
24102;SDS011;12278;53.058;9.028;2023-06-22T12:08:58;5.10;;;3.88;;
24102;SDS011;12278;53.058;9.028;2023-06-22T12:12:58;5.78;;;4.85;;
24102;SDS011;12278;53.058;9.028;2023-06-22T12:17:00;4.75;;;4.30;;
24102;SDS011;12278;53.058;9.028;2023-06-22T12:21:00;4.38;;;4.03;;
24102;SDS011;12278;53.058;9.028;2023-06-22T12:25:02;4.85;;;4.30;;
24102;SDS011;12278;53.058;9.028;2023-06-22T12:29:03;6.97;;;4.50;;
24102;SDS011;12278;53.058;9.028;2023-06-22T12:33:04;5.13;;;4.70;;
24102;SDS011;12278;53.058;9.028;2023-06-22T12:37:05;6.95;;;5.85;;
24102;SDS011;12278;53.058;9.028;2023-06-22T12:41:07;6.05;;;5.00;;
24102;SDS011;12278;53.058;9.028;2023-06-22T12:45:08;6.68;;;5.90;;
24102;SDS011;12278;53.058;9.028;2023-06-22T12:49:09;6.72;;;5.15;;
24102;SDS011;12278;53.058;9.028;2023-06-22T12:53:10;6.22;;;5.13;;
24102;SDS011;12278;53.058;9.028;2023-06-22T12:57:16;6.75;;;6.15;;
24102;SDS011;12278;53.058;9.028;2023-06-22T13:01:17;6.40;;;5.85;;
24102;SDS011;12278;53.058;9.028;2023-06-22T13:05:18;6.80;;;6.18;;
24102;SDS011;12278;53.058;9.028;2023-06-22T13:09:19;6.15;;;5.35;;
24102;SDS011;12278;53.058;9.028;2023-06-22T13:13:20;6.38;;;5.88;;
24102;SDS011;12278;53.058;9.028;2023-06-22T13:17:20;6.72;;;6.13;;
24102;SDS011;12278;53.058;9.028;2023-06-22T13:21:21;7.13;;;6.38;;
24102;SDS011;12278;53.058;9.028;2023-06-22T13:25:22;7.78;;;6.60;;
24102;SDS011;12278;53.058;9.028;2023-06-22T13:29:26;6.85;;;6.03;;
24102;SDS011;12278;53.058;9.028;2023-06-22T13:33:26;6.78;;;6.07;;
24102;SDS011;12278;53.058;9.028;2023-06-22T13:37:27;6.53;;;5.90;;
24102;SDS011;12278;53.058;9.028;2023-06-22T13:41:28;7.30;;;6.53;;
24102;SDS011;12278;53.058;9.028;2023-06-22T13:45:29;7.10;;;6.45;;
24102;SDS011;12278;53.058;9.028;2023-06-22T13:49:30;6.68;;;6.18;;
24102;SDS011;12278;53.058;9.028;2023-06-22T13:53:30;7.25;;;5.38;;
24102;SDS011;12278;53.058;9.028;2023-06-22T13:57:31;7.35;;;6.65;;
24102;SDS011;12278;53.058;9.028;2023-06-22T14:01:32;6.32;;;5.78;;
24102;SDS011;12278;53.058;9.028;2023-06-22T14:05:32;7.15;;;6.53;;
24102;SDS011;12278;53.058;9.028;2023-06-22T14:09:33;7.55;;;6.30;;
24102;SDS011;12278;53.058;9.028;2023-06-22T14:13:34;9.70;;;6.97;;
24102;SDS011;12278;53.058;9.028;2023-06-22T14:17:35;6.60;;;6.00;;
24102;SDS011;12278;53.058;9.028;2023-06-22T14:21:36;7.25;;;6.47;;
24102;SDS011;12278;53.058;9.028;2023-06-22T14:25:37;6.82;;;6.20;;
24102;SDS011;12278;53.058;9.028;2023-06-22T14:29:37;8.40;;;7.60;;
24102;SDS011;12278;53.058;9.028;2023-06-22T14:33:39;6.97;;;6.28;;
24102;SDS011;12278;53.058;9.028;2023-06-22T14:37:40;6.97;;;6.28;;
24102;SDS011;12278;53.058;9.028;2023-06-22T14:41:41;7.55;;;6.82;;
24102;SDS011;12278;53.058;9.028;2023-06-22T14:45:41;7.53;;;6.82;;
24102;SDS011;12278;53.058;9.028;2023-06-22T14:49:42;7.18;;;6.47;;
24102;SDS011;12278;53.058;9.028;2023-06-22T14:53:46;7.40;;;6.75;;
24102;SDS011;12278;53.058;9.028;2023-06-22T14:57:47;9.35;;;6.80;;
24102;SDS011;12278;53.058;9.028;2023-06-22T15:01:47;7.07;;;6.28;;
24102;SDS011;12278;53.058;9.028;2023-06-22T15:05:48;7.32;;;6.63;;
24102;SDS011;12278;53.058;9.028;2023-06-22T15:09:48;7.43;;;6.72;;
24102;SDS011;12278;53.058;9.028;2023-06-22T15:13:51;8.82;;;7.10;;
24102;SDS011;12278;53.058;9.028;2023-06-22T15:17:52;9.75;;;7.07;;
24102;SDS011;12278;53.058;9.028;2023-06-22T15:21:53;7.93;;;7.22;;
24102;SDS011;12278;53.058;9.028;2023-06-22T15:25:53;9.75;;;7.82;;
24102;SDS011;12278;53.058;9.028;2023-06-22T15:29:54;9.25;;;7.95;;
24102;SDS011;12278;53.058;9.028;2023-06-22T15:33:56;8.57;;;7.75;;
24102;SDS011;12278;53.058;9.028;2023-06-22T15:37:56;8.45;;;7.72;;
24102;SDS011;12278;53.058;9.028;2023-06-22T15:41:57;11.27;;;9.60;;
24102;SDS011;12278;53.058;9.028;2023-06-22T15:45:58;16.15;;;11.32;;
24102;SDS011;12278;53.058;9.028;2023-06-22T15:49:58;17.10;;;11.82;;
24102;SDS011;12278;53.058;9.028;2023-06-22T15:53:59;24.27;;;13.43;;
24102;SDS011;12278;53.058;9.028;2023-06-22T15:58:00;18.02;;;14.25;;
24102;SDS011;12278;53.058;9.028;2023-06-22T16:02:00;10.90;;;9.90;;
24102;SDS011;12278;53.058;9.028;2023-06-22T16:06:01;12.75;;;9.75;;
24102;SDS011;12278;53.058;9.028;2023-06-22T16:10:02;13.13;;;10.93;;
24102;SDS011;12278;53.058;9.028;2023-06-22T16:14:03;11.32;;;10.30;;
24102;SDS011;12278;53.058;9.028;2023-06-22T16:18:04;22.73;;;11.10;;
24102;SDS011;12278;53.058;9.028;2023-06-22T16:22:05;13.00;;;11.48;;
24102;SDS011;12278;53.058;9.028;2023-06-22T16:30:23;12.77;;;10.50;;
24102;SDS011;12278;53.058;9.028;2023-06-22T16:34:24;12.15;;;10.57;;
24102;SDS011;12278;53.058;9.028;2023-06-22T16:38:26;11.35;;;10.32;;
24102;SDS011;12278;53.058;9.028;2023-06-22T16:42:27;13.02;;;11.52;;
24102;SDS011;12278;53.058;9.028;2023-06-22T16:50:34;12.98;;;11.52;;
24102;SDS011;12278;53.058;9.028;2023-06-22T16:54:35;13.80;;;12.50;;
24102;SDS011;12278;53.058;9.028;2023-06-22T16:58:37;12.85;;;11.68;;
24102;SDS011;12278;53.058;9.028;2023-06-22T17:02:44;13.05;;;11.68;;
24102;SDS011;12278;53.058;9.028;2023-06-22T17:06:51;14.65;;;12.15;;
24102;SDS011;12278;53.058;9.028;2023-06-22T17:11:11;12.63;;;11.57;;
24102;SDS011;12278;53.058;9.028;2023-06-22T17:15:13;13.70;;;12.32;;
24102;SDS011;12278;53.058;9.028;2023-06-22T17:19:15;13.95;;;11.90;;
24102;SDS011;12278;53.058;9.028;2023-06-22T17:23:16;14.32;;;12.65;;
24102;SDS011;12278;53.058;9.028;2023-06-22T17:27:26;13.55;;;12.18;;
24102;SDS011;12278;53.058;9.028;2023-06-22T17:31:38;14.43;;;13.10;;
24102;SDS011;12278;53.058;9.028;2023-06-22T17:35:49;13.32;;;11.98;;
24102;SDS011;12278;53.058;9.028;2023-06-22T17:39:53;14.38;;;12.93;;
24102;SDS011;12278;53.058;9.028;2023-06-22T17:43:55;15.02;;;13.63;;
24102;SDS011;12278;53.058;9.028;2023-06-22T17:47:57;14.75;;;13.32;;
24102;SDS011;12278;53.058;9.028;2023-06-22T17:51:58;16.17;;;14.00;;
24102;SDS011;12278;53.058;9.028;2023-06-22T17:56:00;16.13;;;14.65;;
24102;SDS011;12278;53.058;9.028;2023-06-22T18:00:03;15.82;;;14.23;;
24102;SDS011;12278;53.058;9.028;2023-06-22T18:04:10;14.68;;;13.27;;
24102;SDS011;12278;53.058;9.028;2023-06-22T18:08:16;14.95;;;13.50;;
24102;SDS011;12278;53.058;9.028;2023-06-22T18:12:25;14.80;;;13.30;;
24102;SDS011;12278;53.058;9.028;2023-06-22T18:16:28;15.75;;;14.18;;
24102;SDS011;12278;53.058;9.028;2023-06-22T18:20:30;14.07;;;12.57;;
24102;SDS011;12278;53.058;9.028;2023-06-22T18:24:32;17.65;;;15.95;;
24102;SDS011;12278;53.058;9.028;2023-06-22T18:28:34;16.52;;;14.82;;
24102;SDS011;12278;53.058;9.028;2023-06-22T18:32:35;15.80;;;14.30;;
24102;SDS011;12278;53.058;9.028;2023-06-22T18:40:48;16.48;;;14.88;;
24102;SDS011;12278;53.058;9.028;2023-06-22T18:44:53;17.65;;;15.98;;
24102;SDS011;12278;53.058;9.028;2023-06-22T18:48:58;18.27;;;16.38;;
24102;SDS011;12278;53.058;9.028;2023-06-22T18:53:16;16.70;;;15.20;;
24102;SDS011;12278;53.058;9.028;2023-06-22T18:57:25;17.50;;;15.80;;
24102;SDS011;12278;53.058;9.028;2023-06-22T19:01:33;18.13;;;16.33;;
24102;SDS011;12278;53.058;9.028;2023-06-22T19:05:37;18.10;;;16.33;;
24102;SDS011;12278;53.058;9.028;2023-06-22T19:09:39;17.60;;;15.90;;
24102;SDS011;12278;53.058;9.028;2023-06-22T19:13:46;17.77;;;16.08;;
24102;SDS011;12278;53.058;9.028;2023-06-22T19:17:50;15.93;;;14.38;;
24102;SDS011;12278;53.058;9.028;2023-06-22T19:22:00;17.30;;;15.52;;
24102;SDS011;12278;53.058;9.028;2023-06-22T19:26:01;17.73;;;14.48;;
24102;SDS011;12278;53.058;9.028;2023-06-22T19:30:03;16.15;;;14.48;;
24102;SDS011;12278;53.058;9.028;2023-06-22T19:34:04;14.77;;;13.15;;
24102;SDS011;12278;53.058;9.028;2023-06-22T19:38:07;15.98;;;14.38;;
24102;SDS011;12278;53.058;9.028;2023-06-22T19:42:08;16.52;;;14.88;;
24102;SDS011;12278;53.058;9.028;2023-06-22T19:46:09;17.50;;;15.88;;
24102;SDS011;12278;53.058;9.028;2023-06-22T19:50:09;17.20;;;15.48;;
24102;SDS011;12278;53.058;9.028;2023-06-22T19:54:10;17.30;;;15.50;;
24102;SDS011;12278;53.058;9.028;2023-06-22T19:58:23;18.00;;;14.70;;
24102;SDS011;12278;53.058;9.028;2023-06-22T20:02:32;17.48;;;15.65;;
24102;SDS011;12278;53.058;9.028;2023-06-22T20:06:33;19.10;;;17.20;;
24102;SDS011;12278;53.058;9.028;2023-06-22T20:10:36;18.73;;;16.83;;
24102;SDS011;12278;53.058;9.028;2023-06-22T20:14:38;15.65;;;14.18;;
24102;SDS011;12278;53.058;9.028;2023-06-22T20:18:39;14.18;;;12.90;;
24102;SDS011;12278;53.058;9.028;2023-06-22T20:22:42;13.10;;;11.82;;
24102;SDS011;12278;53.058;9.028;2023-06-22T20:26:44;12.70;;;11.38;;
24102;SDS011;12278;53.058;9.028;2023-06-22T20:35:09;9.65;;;8.65;;
24102;SDS011;12278;53.058;9.028;2023-06-22T20:39:10;8.95;;;8.05;;
24102;SDS011;12278;53.058;9.028;2023-06-22T20:43:12;10.82;;;9.25;;
24102;SDS011;12278;53.058;9.028;2023-06-22T20:47:13;10.50;;;9.30;;
24102;SDS011;12278;53.058;9.028;2023-06-22T20:51:16;10.80;;;9.70;;
24102;SDS011;12278;53.058;9.028;2023-06-22T20:55:17;10.70;;;9.57;;
24102;SDS011;12278;53.058;9.028;2023-06-22T20:59:19;10.38;;;9.38;;
24102;SDS011;12278;53.058;9.028;2023-06-22T21:03:23;10.75;;;9.68;;
24102;SDS011;12278;53.058;9.028;2023-06-22T21:07:24;10.15;;;9.00;;
24102;SDS011;12278;53.058;9.028;2023-06-22T21:11:24;10.55;;;9.35;;
24102;SDS011;12278;53.058;9.028;2023-06-22T21:15:25;12.10;;;10.98;;
24102;SDS011;12278;53.058;9.028;2023-06-22T21:19:26;13.38;;;11.77;;
24102;SDS011;12278;53.058;9.028;2023-06-22T21:23:28;12.23;;;11.02;;
24102;SDS011;12278;53.058;9.028;2023-06-22T21:27:28;11.52;;;10.35;;
24102;SDS011;12278;53.058;9.028;2023-06-22T21:31:29;11.30;;;10.15;;
24102;SDS011;12278;53.058;9.028;2023-06-22T21:35:29;10.43;;;9.43;;
24102;SDS011;12278;53.058;9.028;2023-06-22T21:39:30;12.80;;;10.07;;
24102;SDS011;12278;53.058;9.028;2023-06-22T21:43:35;10.63;;;9.43;;
24102;SDS011;12278;53.058;9.028;2023-06-22T21:47:36;10.75;;;9.55;;
24102;SDS011;12278;53.058;9.028;2023-06-22T21:51:37;10.32;;;8.70;;
24102;SDS011;12278;53.058;9.028;2023-06-22T21:55:37;12.38;;;8.00;;
24102;SDS011;12278;53.058;9.028;2023-06-22T21:59:38;8.27;;;6.53;;
24102;SDS011;12278;53.058;9.028;2023-06-22T22:03:38;7.43;;;6.28;;
24102;SDS011;12278;53.058;9.028;2023-06-22T22:07:42;7.25;;;6.07;;
24102;SDS011;12278;53.058;9.028;2023-06-22T22:11:43;8.85;;;5.70;;
24102;SDS011;12278;53.058;9.028;2023-06-22T22:15:44;5.60;;;4.97;;
24102;SDS011;12278;53.058;9.028;2023-06-22T22:19:44;6.28;;;4.60;;
24102;SDS011;12278;53.058;9.028;2023-06-22T22:23:45;5.07;;;4.63;;
24102;SDS011;12278;53.058;9.028;2023-06-22T22:27:46;10.35;;;4.28;;
24102;SDS011;12278;53.058;9.028;2023-06-22T22:31:46;4.40;;;4.00;;
24102;SDS011;12278;53.058;9.028;2023-06-22T22:35:49;4.80;;;3.95;;
24102;SDS011;12278;53.058;9.028;2023-06-22T22:39:50;4.40;;;4.00;;
24102;SDS011;12278;53.058;9.028;2023-06-22T22:43:50;5.10;;;4.35;;
24102;SDS011;12278;53.058;9.028;2023-06-22T22:47:51;4.85;;;4.05;;
24102;SDS011;12278;53.058;9.028;2023-06-22T22:51:52;5.60;;;5.00;;
24102;SDS011;12278;53.058;9.028;2023-06-22T22:55:52;5.60;;;4.03;;
24102;SDS011;12278;53.058;9.028;2023-06-22T22:59:53;5.22;;;4.60;;
24102;SDS011;12278;53.058;9.028;2023-06-22T23:03:54;4.90;;;4.40;;
24102;SDS011;12278;53.058;9.028;2023-06-22T23:07:55;5.10;;;4.65;;
24102;SDS011;12278;53.058;9.028;2023-06-22T23:11:56;6.72;;;5.45;;
24102;SDS011;12278;53.058;9.028;2023-06-22T23:15:57;7.30;;;5.28;;
24102;SDS011;12278;53.058;9.028;2023-06-22T23:19:58;6.10;;;5.18;;
24102;SDS011;12278;53.058;9.028;2023-06-22T23:24:08;6.63;;;5.22;;
24102;SDS011;12278;53.058;9.028;2023-06-22T23:28:08;5.43;;;4.80;;
24102;SDS011;12278;53.058;9.028;2023-06-22T23:32:09;6.43;;;5.55;;
24102;SDS011;12278;53.058;9.028;2023-06-22T23:36:10;5.53;;;5.00;;
24102;SDS011;12278;53.058;9.028;2023-06-22T23:40:26;8.75;;;5.45;;
24102;SDS011;12278;53.058;9.028;2023-06-22T23:44:26;5.72;;;5.20;;
24102;SDS011;12278;53.058;9.028;2023-06-22T23:48:27;7.20;;;6.20;;
24102;SDS011;12278;53.058;9.028;2023-06-22T23:52:28;6.70;;;5.93;;
24102;SDS011;12278;53.058;9.028;2023-06-22T23:56:29;7.75;;;6.60;;
